Time;durP1;ratioP1;P1;durP2;ratioP2;P2;SDS_P1;SDS_P2;PMS_P1;PMS_P2;Temp;Humidity;BMP_temperature;BMP_pressure;BME280_temperature;BME280_humidity;BME280_pressure;Samples;Min_cycle;Max_cycle;Signal;HPM_P1;HPM_P2
2020/12/13 00:02:21;;;;;;;45.20;23.30;;;9.20;99.90;;;;;;5015498;28;20540;-91
2020/12/13 00:04:48;;;;;;;45.10;27.13;;;9.20;99.90;;;;;;5015356;28;20460;-90
2020/12/13 00:07:16;;;;;;;46.17;24.13;;;9.20;99.90;;;;;;5016680;28;20484;-91
2020/12/13 00:09:42;;;;;;;48.17;24.47;;;9.10;99.90;;;;;;5023508;28;20445;-90
2020/12/13 00:12:09;;;;;;;43.80;24.60;;;9.10;99.90;;;;;;5035113;28;21055;-90
2020/12/13 00:14:35;;;;;;;47.47;27.50;;;9.10;99.90;;;;;;5034610;28;20443;-90
2020/12/13 00:17:02;;;;;;;40.47;25.07;;;9.10;99.90;;;;;;5034946;28;20795;-88
2020/12/13 00:19:28;;;;;;;38.33;21.20;;;9.20;99.90;;;;;;5034558;28;20440;-89
2020/12/13 00:21:57;;;;;;;46.40;25.03;;;9.20;99.90;;;;;;5035892;28;20464;-89
2020/12/13 00:24:24;;;;;;;41.47;24.33;;;9.20;99.90;;;;;;5033886;28;21007;-88
2020/12/13 00:26:50;;;;;;;49.07;26.10;;;9.10;99.90;;;;;;5021678;28;20538;-89
2020/12/13 00:29:17;;;;;;;55.13;29.73;;;9.10;99.90;;;;;;5028913;28;20460;-90
2020/12/13 00:31:44;;;;;;;40.73;23.77;;;9.20;99.90;;;;;;5050216;28;20473;-88
2020/12/13 00:34:11;;;;;;;57.50;29.63;;;9.20;99.90;;;;;;5036060;28;20586;-90
2020/12/13 00:36:37;;;;;;;50.63;29.10;;;9.10;99.90;;;;;;5032391;28;20542;-89
2020/12/13 00:39:05;;;;;;;54.33;28.80;;;9.10;99.90;;;;;;5043716;28;20455;-89
2020/12/13 00:41:32;;;;;;;52.00;28.20;;;9.10;99.90;;;;;;5053694;28;20516;-91
2020/12/13 00:43:58;;;;;;;47.30;25.17;;;9.10;99.90;;;;;;5055194;28;20469;-90
2020/12/13 00:46:25;;;;;;;55.03;30.43;;;9.10;99.90;;;;;;5055292;28;20449;-93
2020/12/13 00:48:51;;;;;;;57.03;28.97;;;9.00;99.90;;;;;;5057035;28;20500;-92
2020/12/13 00:54:50;;;;;;;45.90;24.33;;;9.00;99.90;;;;;;5038704;28;20453;-89
2020/12/13 00:57:18;;;;;;;56.27;29.50;;;9.00;99.90;;;;;;5048995;28;20444;-89
2020/12/13 00:59:44;;;;;;;59.57;31.03;;;9.00;99.90;;;;;;5042609;28;20458;-89
2020/12/13 01:02:34;;;;;;;51.27;29.70;;;9.00;99.90;;;;;;5049807;28;20512;-88
2020/12/13 01:05:00;;;;;;;52.13;29.97;;;9.00;99.90;;;;;;5043099;28;20461;-88
2020/12/13 01:07:26;;;;;;;50.97;28.23;;;9.00;99.90;;;;;;5050226;28;20504;-90
2020/12/13 01:09:54;;;;;;;54.80;27.87;;;9.00;99.90;;;;;;5046575;28;20536;-86
2020/12/13 01:12:25;;;;;;;52.37;29.27;;;9.00;99.90;;;;;;5039488;28;20488;-88
2020/12/13 01:14:55;;;;;;;51.83;28.37;;;8.90;99.90;;;;;;5036999;28;20529;-88
2020/12/13 01:17:33;;;;;;;48.50;26.40;;;9.00;99.90;;;;;;5040879;28;20445;-94
2020/12/13 01:19:59;;;;;;;47.67;27.77;;;9.00;99.90;;;;;;5040342;28;20912;-90
2020/12/13 01:22:26;;;;;;;39.77;24.83;;;9.00;99.90;;;;;;5036661;28;20547;-90
2020/12/13 01:25:04;;;;;;;42.97;25.70;;;9.00;99.90;;;;;;5039648;28;20472;-89
2020/12/13 01:27:33;;;;;;;49.47;27.63;;;9.10;99.90;;;;;;5036675;28;21011;-90
2020/12/13 01:30:07;;;;;;;53.10;29.53;;;9.10;99.90;;;;;;5036230;28;20523;-91
2020/12/13 01:32:42;;;;;;;72.20;33.97;;;9.00;99.90;;;;;;5039239;28;20594;-90
2020/12/13 01:35:10;;;;;;;46.80;26.50;;;9.00;99.90;;;;;;5038789;28;20459;-90
2020/12/13 01:37:37;;;;;;;49.50;29.30;;;9.00;99.90;;;;;;5038836;28;20445;-90
2020/12/13 01:40:09;;;;;;;56.83;30.80;;;9.00;99.90;;;;;;5037036;28;20512;-90
2020/12/13 01:42:38;;;;;;;53.30;30.23;;;9.00;99.90;;;;;;5017719;28;20585;-89
2020/12/13 01:45:06;;;;;;;49.57;27.70;;;9.00;99.90;;;;;;5025469;28;20505;-92
2020/12/13 01:47:37;;;;;;;46.73;28.23;;;9.10;99.90;;;;;;5038711;28;20547;-89
2020/12/13 01:50:12;;;;;;;47.23;27.23;;;9.10;99.90;;;;;;5044010;28;20440;-89
2020/12/13 01:52:47;;;;;;;43.10;24.83;;;9.20;99.90;;;;;;5044286;28;20530;-88
2020/12/13 01:55:34;;;;;;;53.30;27.47;;;9.20;99.90;;;;;;5045518;28;20526;-89
2020/12/13 01:58:37;;;;;;;46.90;27.87;;;9.10;99.90;;;;;;5059648;28;20443;-90
2020/12/13 02:01:06;;;;;;;47.13;28.17;;;9.20;99.90;;;;;;5045667;28;20475;-91
2020/12/13 02:03:40;;;;;;;52.13;28.13;;;9.10;99.90;;;;;;5041484;28;20591;-91
2020/12/13 02:06:12;;;;;;;54.33;26.50;;;9.10;99.90;;;;;;5056260;28;20733;-88
2020/12/13 02:09:30;;;;;;;64.37;31.53;;;9.10;99.90;;;;;;5056090;28;20443;-89
2020/12/13 02:11:57;;;;;;;46.77;25.80;;;9.00;99.90;;;;;;4990940;28;20534;-87
2020/12/13 02:14:26;;;;;;;48.70;26.70;;;9.00;99.90;;;;;;4990958;28;20956;-89
2020/12/13 02:16:59;;;;;;;63.53;31.87;;;8.90;99.90;;;;;;5006950;28;20453;-90
2020/12/13 02:19:25;;;;;;;45.13;26.03;;;8.90;99.90;;;;;;5035946;28;20453;-90
2020/12/13 02:21:52;;;;;;;57.20;28.83;;;9.00;99.90;;;;;;5035992;28;20460;-89
2020/12/13 02:24:19;;;;;;;47.23;27.07;;;9.00;99.90;;;;;;5035582;28;20784;-89
2020/12/13 02:26:49;;;;;;;54.63;29.27;;;9.00;99.90;;;;;;5031513;28;20459;-89
2020/12/13 02:29:15;;;;;;;50.10;27.20;;;9.00;99.90;;;;;;5031973;28;20487;-89
2020/12/13 02:31:42;;;;;;;46.37;27.13;;;9.00;99.90;;;;;;5033803;28;20575;-89
2020/12/13 02:34:09;;;;;;;52.73;28.90;;;9.00;99.90;;;;;;5036375;28;20459;-90
2020/12/13 02:36:35;;;;;;;48.97;26.30;;;9.00;99.90;;;;;;5035058;28;20535;-90
2020/12/13 02:39:09;;;;;;;39.80;25.00;;;9.10;99.90;;;;;;5036630;28;20467;-89
2020/12/13 02:41:37;;;;;;;51.63;28.10;;;9.10;99.90;;;;;;5043799;28;20471;-88
2020/12/13 02:44:03;;;;;;;43.47;25.33;;;9.10;99.90;;;;;;5038423;28;20567;-91
2020/12/13 02:46:37;;;;;;;54.40;30.20;;;9.10;99.90;;;;;;5037323;28;20524;-88
2020/12/13 02:49:03;;;;;;;55.47;28.50;;;9.10;99.90;;;;;;5024379;28;20449;-91
2020/12/13 02:51:29;;;;;;;54.10;29.33;;;9.00;99.90;;;;;;5015886;28;20572;-89
2020/12/13 02:54:00;;;;;;;73.70;34.13;;;9.10;99.90;;;;;;5015017;28;20458;-89
2020/12/13 02:56:38;;;;;;;71.97;33.43;;;9.00;99.90;;;;;;5029865;28;21083;-90
2020/12/13 02:59:05;;;;;;;58.57;30.17;;;9.00;99.90;;;;;;5035185;28;20440;-91
2020/12/13 03:01:31;;;;;;;71.57;37.20;;;9.00;99.90;;;;;;5030508;28;20450;-91
2020/12/13 03:03:58;;;;;;;58.33;31.50;;;9.00;99.90;;;;;;5015021;28;20446;-91
2020/12/13 03:06:30;;;;;;;61.33;31.90;;;9.00;99.90;;;;;;5015461;28;20442;-87
2020/12/13 03:08:56;;;;;;;58.20;30.57;;;9.00;99.90;;;;;;5016430;28;20443;-88
2020/12/13 03:11:23;;;;;;;50.90;28.53;;;9.10;99.90;;;;;;5015782;28;20853;-88
2020/12/13 03:13:50;;;;;;;71.90;33.27;;;9.10;99.90;;;;;;5015889;28;20520;-89
2020/12/13 03:16:24;;;;;;;68.73;34.97;;;9.00;99.90;;;;;;5027256;28;20446;-89
2020/12/13 03:18:50;;;;;;;64.40;32.10;;;8.90;99.90;;;;;;5050882;28;20436;-88
2020/12/13 03:21:16;;;;;;;60.87;33.70;;;9.00;99.90;;;;;;5050039;28;20455;-90
2020/12/13 03:23:43;;;;;;;56.87;30.30;;;9.00;99.90;;;;;;5031988;28;20457;-90
2020/12/13 03:26:15;;;;;;;66.17;33.07;;;9.00;99.90;;;;;;5030588;28;20457;-90
2020/12/13 03:28:44;;;;;;;59.80;29.80;;;9.00;99.90;;;;;;5024438;28;20767;-90
2020/12/13 03:31:10;;;;;;;50.53;28.13;;;8.90;99.90;;;;;;5025017;28;20492;-89
2020/12/13 03:33:37;;;;;;;57.33;31.90;;;9.00;99.90;;;;;;5015073;28;20481;-90
2020/12/13 03:36:04;;;;;;;71.73;34.50;;;9.00;99.90;;;;;;5014462;28;20792;-90
2020/12/13 03:38:30;;;;;;;73.47;34.63;;;8.90;99.90;;;;;;5033040;28;20507;-90
2020/12/13 03:40:57;;;;;;;60.83;31.73;;;8.90;99.90;;;;;;5025295;28;20448;-90
2020/12/13 03:43:23;;;;;;;54.23;31.67;;;8.90;99.90;;;;;;5018525;28;20453;-89
2020/12/13 03:45:49;;;;;;;71.30;35.63;;;8.90;99.90;;;;;;5032538;28;20488;-89
2020/12/13 03:48:16;;;;;;;54.67;30.43;;;9.00;99.90;;;;;;5027349;28;20461;-89
2020/12/13 03:50:43;;;;;;;48.53;29.17;;;9.00;99.90;;;;;;5028508;28;20525;-89
2020/12/13 03:53:11;;;;;;;52.67;29.80;;;9.00;99.90;;;;;;5015022;28;20827;-88
2020/12/13 03:55:38;;;;;;;63.60;35.07;;;9.10;99.90;;;;;;5014050;28;20834;-90
2020/12/13 03:58:05;;;;;;;60.53;31.50;;;9.10;99.90;;;;;;5014838;28;20525;-89
2020/12/13 04:00:32;;;;;;;55.37;31.97;;;9.10;99.90;;;;;;5021326;28;20449;-90
2020/12/13 04:02:59;;;;;;;55.30;31.10;;;9.20;99.90;;;;;;5034616;28;20532;-90
2020/12/13 04:05:26;;;;;;;54.70;29.33;;;9.20;99.90;;;;;;5035370;28;20540;-89
2020/12/13 04:07:54;;;;;;;53.50;30.43;;;9.10;99.90;;;;;;5035976;28;20548;-89
2020/12/13 04:10:20;;;;;;;49.50;27.50;;;9.20;99.90;;;;;;5045396;28;20513;-88
2020/12/13 04:12:47;;;;;;;48.77;29.57;;;9.20;99.90;;;;;;5047735;28;21031;-86
2020/12/13 04:15:14;;;;;;;53.80;30.37;;;9.20;99.90;;;;;;5035187;28;20453;-90
2020/12/13 04:17:40;;;;;;;54.53;30.53;;;9.20;99.90;;;;;;5034993;28;20539;-89
2020/12/13 04:20:08;;;;;;;55.33;30.10;;;9.20;99.90;;;;;;5035137;28;20457;-88
2020/12/13 04:22:34;;;;;;;48.53;28.33;;;9.20;99.90;;;;;;5034558;28;20455;-89
2020/12/13 04:25:03;;;;;;;56.70;30.37;;;9.20;99.90;;;;;;5038777;28;20464;-89
2020/12/13 04:27:29;;;;;;;51.83;31.77;;;9.20;99.90;;;;;;5038813;28;20452;-89
2020/12/13 04:29:56;;;;;;;49.30;30.37;;;9.10;99.90;;;;;;5039255;28;20978;-93
2020/12/13 04:32:22;;;;;;;52.47;30.00;;;9.20;99.90;;;;;;5038156;28;20480;-88
2020/12/13 04:34:49;;;;;;;53.80;30.40;;;9.20;99.90;;;;;;5039611;28;20445;-88
2020/12/13 04:37:15;;;;;;;53.57;30.83;;;9.10;99.90;;;;;;5038847;28;20861;-89
2020/12/13 04:39:42;;;;;;;47.77;28.90;;;9.20;99.90;;;;;;5038527;28;20451;-88
2020/12/13 04:42:09;;;;;;;54.77;31.27;;;9.20;99.90;;;;;;5038088;28;20433;-90
2020/12/13 04:44:37;;;;;;;44.80;27.63;;;9.20;99.90;;;;;;5037245;28;20472;-91
2020/12/13 04:47:04;;;;;;;47.93;28.50;;;9.20;99.90;;;;;;5030093;28;20537;-90
2020/12/13 04:49:32;;;;;;;50.13;30.00;;;9.20;99.90;;;;;;5017477;28;20959;-91
2020/12/13 04:52:01;;;;;;;47.03;27.80;;;9.20;99.90;;;;;;5036540;28;20480;-89
2020/12/13 04:54:29;;;;;;;44.67;28.50;;;9.20;99.90;;;;;;5036120;28;20560;-87
2020/12/13 04:56:58;;;;;;;47.87;28.73;;;9.20;99.90;;;;;;5038056;28;20528;-88
2020/12/13 04:59:26;;;;;;;50.07;30.90;;;9.20;99.90;;;;;;5038169;28;20472;-89
2020/12/13 05:01:53;;;;;;;48.00;29.40;;;9.00;99.90;;;;;;5038844;28;20944;-88
2020/12/13 05:07:42;;;;;;;47.03;30.30;;;9.00;99.90;;;;;;5036852;28;20404;-87
2020/12/13 05:10:09;;;;;;;51.97;30.90;;;9.10;99.90;;;;;;5036303;28;20909;-88
2020/12/13 05:12:35;;;;;;;48.93;29.93;;;9.00;99.90;;;;;;5036764;28;20789;-87
2020/12/13 05:15:03;;;;;;;51.23;28.40;;;9.10;99.90;;;;;;5036831;28;20483;-87
2020/12/13 05:17:30;;;;;;;52.97;30.90;;;9.10;99.90;;;;;;5036588;28;20535;-86
2020/12/13 05:19:56;;;;;;;51.83;30.33;;;9.10;99.90;;;;;;5036857;28;20521;-86
2020/12/13 05:22:23;;;;;;;50.60;31.87;;;9.10;99.90;;;;;;5036321;28;20548;-86
2020/12/13 05:24:49;;;;;;;61.47;31.60;;;9.20;99.90;;;;;;5035520;28;20467;-88
2020/12/13 05:27:22;;;;;;;63.97;32.57;;;9.20;99.90;;;;;;5034053;28;20587;-87
2020/12/13 05:29:51;;;;;;;54.20;33.07;;;9.10;99.90;;;;;;5015809;28;20438;-86
2020/12/13 05:32:21;;;;;;;50.63;33.17;;;9.10;99.90;;;;;;5032707;28;20488;-86
2020/12/13 05:34:51;;;;;;;53.53;32.73;;;9.20;99.90;;;;;;5028145;28;20445;-86
2020/12/13 05:37:18;;;;;;;50.60;32.43;;;9.10;99.90;;;;;;5035172;28;20453;-87
2020/12/13 05:39:49;;;;;;;45.37;29.87;;;9.10;99.90;;;;;;5030743;28;20451;-85
2020/12/13 05:42:37;;;;;;;52.40;30.90;;;9.10;99.90;;;;;;5039535;28;20441;-89
2020/12/13 05:45:21;;;;;;;64.43;36.30;;;9.10;99.90;;;;;;5035900;28;20480;-89
2020/12/13 05:48:18;;;;;;;73.77;38.00;;;9.00;99.90;;;;;;5035527;28;20437;-89
2020/12/13 05:50:56;;;;;;;56.00;33.60;;;8.90;99.90;;;;;;5036320;28;20527;-89
2020/12/13 05:53:22;;;;;;;56.43;33.37;;;8.90;99.90;;;;;;5036230;28;20496;-88
2020/12/13 05:55:52;;;;;;;54.90;30.07;;;9.00;99.90;;;;;;5035459;28;20449;-89
2020/12/13 05:58:19;;;;;;;63.60;34.60;;;9.00;99.90;;;;;;5035502;28;20433;-90
2020/12/13 06:00:46;;;;;;;59.23;33.30;;;9.00;99.90;;;;;;5035462;28;20449;-88
2020/12/13 06:03:17;;;;;;;51.77;30.50;;;9.00;99.90;;;;;;5035723;28;20507;-89
2020/12/13 06:05:44;;;;;;;61.37;32.87;;;9.00;99.90;;;;;;5034819;28;20452;-89
2020/12/13 06:08:15;;;;;;;52.33;31.53;;;9.00;99.90;;;;;;5034201;28;20449;-89
2020/12/13 06:10:45;;;;;;;57.07;31.47;;;9.00;99.90;;;;;;5022198;28;20444;-89
2020/12/13 06:13:18;;;;;;;59.57;33.47;;;9.00;99.90;;;;;;5035992;28;20559;-90
2020/12/13 06:15:46;;;;;;;53.03;29.80;;;9.00;99.90;;;;;;5035649;28;20429;-90
2020/12/13 06:18:14;;;;;;;55.10;32.07;;;9.00;99.90;;;;;;5041519;28;20458;-89
2020/12/13 06:20:42;;;;;;;63.13;33.67;;;9.00;99.90;;;;;;5035536;28;20449;-89
2020/12/13 06:23:08;;;;;;;61.33;31.53;;;9.00;99.90;;;;;;5035797;28;20464;-89
2020/12/13 06:25:35;;;;;;;54.13;30.60;;;9.10;99.90;;;;;;5036480;28;20441;-90
2020/12/13 06:28:02;;;;;;;51.03;30.57;;;9.10;99.90;;;;;;5037352;28;20491;-89
2020/12/13 06:30:29;;;;;;;57.23;32.00;;;9.10;99.90;;;;;;5045284;28;20521;-88
2020/12/13 06:32:55;;;;;;;63.83;32.73;;;9.10;99.90;;;;;;5036136;28;20564;-89
2020/12/13 06:35:23;;;;;;;61.70;34.03;;;9.10;99.90;;;;;;5037037;28;20479;-88
2020/12/13 06:37:49;;;;;;;51.93;29.23;;;9.00;99.90;;;;;;5035026;28;20841;-90
2020/12/13 06:40:20;;;;;;;67.17;32.80;;;9.00;99.90;;;;;;5034632;28;20484;-89
2020/12/13 06:42:48;;;;;;;53.67;30.17;;;9.00;99.90;;;;;;5033281;28;20449;-89
2020/12/13 06:45:15;;;;;;;60.70;31.40;;;9.00;99.90;;;;;;5035790;28;20491;-89
2020/12/13 06:47:43;;;;;;;53.87;28.50;;;9.00;99.90;;;;;;5034134;28;20441;-90
2020/12/13 06:50:10;;;;;;;54.80;32.00;;;9.10;99.90;;;;;;5035752;28;20458;-86
2020/12/13 06:52:40;;;;;;;51.27;29.30;;;9.10;99.90;;;;;;5033778;28;20568;-87
2020/12/13 06:55:07;;;;;;;62.20;32.77;;;9.10;99.90;;;;;;5021301;28;20754;-87
2020/12/13 06:57:36;;;;;;;47.57;29.60;;;9.00;99.90;;;;;;5034756;28;20437;-92
2020/12/13 07:00:06;;;;;;;50.60;29.37;;;9.10;99.90;;;;;;5032958;28;20464;-86
2020/12/13 07:02:47;;;;;;;52.07;29.67;;;9.10;99.90;;;;;;5027512;28;20462;-86
2020/12/13 07:05:13;;;;;;;53.43;27.83;;;9.10;99.90;;;;;;5034684;28;20542;-86
2020/12/13 07:07:41;;;;;;;50.80;28.90;;;9.00;99.90;;;;;;5034377;28;20449;-87
2020/12/13 07:10:09;;;;;;;50.43;28.57;;;9.00;99.90;;;;;;5034650;28;20514;-87
2020/12/13 07:12:37;;;;;;;53.10;30.07;;;9.10;99.90;;;;;;5031407;28;21361;-88
2020/12/13 07:15:18;;;;;;;52.83;27.87;;;9.10;99.90;;;;;;5029815;28;20897;-87
2020/12/13 07:17:46;;;;;;;54.40;28.67;;;9.00;99.90;;;;;;5033826;28;20449;-88
2020/12/13 07:20:13;;;;;;;58.93;30.63;;;9.00;99.90;;;;;;5033674;28;20448;-87
2020/12/13 07:22:40;;;;;;;52.77;27.90;;;9.00;99.90;;;;;;5033405;28;20530;-90
2020/12/13 07:25:07;;;;;;;54.80;29.20;;;9.00;99.90;;;;;;5026529;28;20468;-86
2020/12/13 07:27:33;;;;;;;52.33;28.77;;;9.00;99.90;;;;;;5022430;28;20457;-86
2020/12/13 07:30:03;;;;;;;44.27;26.00;;;8.90;99.90;;;;;;5026597;28;20448;-88
2020/12/13 07:32:34;;;;;;;42.90;26.37;;;8.90;99.90;;;;;;5029207;28;20566;-86
2020/12/13 07:35:03;;;;;;;42.80;27.40;;;8.90;99.90;;;;;;5033724;28;20452;-86
2020/12/13 07:37:31;;;;;;;43.53;25.77;;;9.00;99.90;;;;;;5019375;28;20488;-85
2020/12/13 07:40:09;;;;;;;42.77;25.27;;;8.90;99.90;;;;;;5033827;28;20870;-85
2020/12/13 07:42:56;;;;;;;46.00;28.47;;;8.90;99.90;;;;;;5031541;28;20460;-86
2020/12/13 07:45:23;;;;;;;38.00;23.67;;;8.90;99.90;;;;;;5032663;28;20515;-86
2020/12/13 07:48:00;;;;;;;36.93;22.83;;;8.90;99.90;;;;;;5032752;28;20457;-85
2020/12/13 07:50:34;;;;;;;46.33;26.87;;;8.90;99.90;;;;;;5033542;28;20584;-85
2020/12/13 07:53:16;;;;;;;;;;;;;;;;;;;;;
2020/12/13 07:55:46;;;;;;;42.93;25.80;;;8.90;99.90;;;;;;5033422;28;20457;-84
2020/12/13 07:58:18;;;;;;;43.63;25.30;;;8.90;99.90;;;;;;5024259;28;20461;-83
2020/12/13 08:00:45;;;;;;;37.50;23.07;;;8.80;99.90;;;;;;5023409;28;20439;-83
2020/12/13 08:03:11;;;;;;;42.30;26.70;;;8.80;99.90;;;;;;5033517;28;20866;-83
2020/12/13 08:05:42;;;;;;;40.60;24.90;;;8.80;99.90;;;;;;5033111;28;20452;-86
2020/12/13 08:08:09;;;;;;;38.17;24.60;;;8.90;99.90;;;;;;5033259;28;20473;-83
2020/12/13 08:10:38;;;;;;;39.63;25.03;;;8.90;99.90;;;;;;5033323;28;20524;-83
2020/12/13 08:13:08;;;;;;;38.60;24.70;;;8.90;99.90;;;;;;5033535;28;20586;-83
2020/12/13 08:15:40;;;;;;;39.70;25.00;;;9.00;99.90;;;;;;5033788;28;20793;-84
2020/12/13 08:18:09;;;;;;;44.97;26.83;;;9.00;99.90;;;;;;5026606;28;20457;-84
2020/12/13 08:20:39;;;;;;;39.97;26.20;;;9.00;99.90;;;;;;5033583;28;20453;-86
2020/12/13 08:23:07;;;;;;;42.00;28.20;;;9.00;99.90;;;;;;5026674;28;20544;-86
2020/12/13 08:25:35;;;;;;;45.07;26.27;;;9.00;99.90;;;;;;5027361;28;20457;-86
2020/12/13 08:28:03;;;;;;;39.13;25.83;;;8.90;99.90;;;;;;5033303;28;20461;-86
2020/12/13 08:30:31;;;;;;;37.83;25.63;;;8.90;99.90;;;;;;5035663;28;20455;-86
2020/12/13 08:32:59;;;;;;;39.70;25.80;;;8.80;99.90;;;;;;5032640;28;20495;-86
2020/12/13 08:35:28;;;;;;;43.57;26.47;;;8.90;99.90;;;;;;5033581;28;20445;-86
2020/12/13 08:37:54;;;;;;;43.87;26.43;;;8.90;99.90;;;;;;5032664;28;20457;-86
2020/12/13 08:40:35;;;;;;;40.30;26.77;;;8.70;99.90;;;;;;5033290;28;20449;-86
2020/12/13 08:43:01;;;;;;;38.40;25.63;;;8.70;99.90;;;;;;5025153;28;20451;-85
2020/12/13 08:45:27;;;;;;;49.10;25.63;;;8.80;99.90;;;;;;5022964;28;20951;-86
2020/12/13 08:48:00;;;;;;;40.00;27.83;;;8.70;99.90;;;;;;5028223;28;20457;-86
2020/12/13 08:50:27;;;;;;;35.47;23.70;;;8.70;99.90;;;;;;5033747;28;20441;-86
2020/12/13 08:52:53;;;;;;;34.20;23.93;;;8.80;99.90;;;;;;5032852;28;20567;-86
2020/12/13 08:55:26;;;;;;;43.47;24.97;;;8.80;99.90;;;;;;5033974;28;20456;-86
2020/12/13 08:57:59;;;;;;;38.33;27.53;;;8.80;99.90;;;;;;5033377;28;20766;-86
2020/12/13 09:00:27;;;;;;;41.07;27.07;;;8.90;99.90;;;;;;5033925;28;20520;-86
2020/12/13 09:02:58;;;;;;;41.43;27.30;;;8.80;99.90;;;;;;5033260;28;20452;-86
2020/12/13 09:05:29;;;;;;;33.47;24.67;;;8.80;99.90;;;;;;5033799;28;20449;-87
2020/12/13 09:07:56;;;;;;;36.13;23.70;;;8.80;99.90;;;;;;5023391;28;20955;-86
2020/12/13 09:10:23;;;;;;;35.57;24.90;;;8.70;99.90;;;;;;5017076;28;20441;-86
2020/12/13 09:12:50;;;;;;;31.50;22.77;;;8.80;99.90;;;;;;5017823;28;20580;-85
2020/12/13 09:15:18;;;;;;;32.93;22.83;;;8.70;99.90;;;;;;5017493;28;20437;-85
2020/12/13 09:17:53;;;;;;;29.90;21.23;;;8.70;99.90;;;;;;5017362;28;20515;-86
2020/12/13 09:20:26;;;;;;;32.13;22.90;;;8.80;99.90;;;;;;5034572;28;20451;-85
2020/12/13 09:23:04;;;;;;;32.27;22.83;;;8.90;99.90;;;;;;5036899;28;20455;-85
2020/12/13 09:25:35;;;;;;;27.53;19.37;;;8.90;99.90;;;;;;5033488;28;20448;-86
2020/12/13 09:28:02;;;;;;;30.20;21.10;;;8.90;99.90;;;;;;5037044;28;20452;-85
2020/12/13 09:30:29;;;;;;;26.27;18.73;;;8.80;99.90;;;;;;5036953;28;20671;-85
2020/12/13 09:32:55;;;;;;;32.57;21.63;;;9.00;99.90;;;;;;5036988;28;20567;-85
2020/12/13 09:35:22;;;;;;;24.23;18.13;;;9.00;99.90;;;;;;5037669;28;20532;-85
2020/12/13 09:37:48;;;;;;;28.10;17.30;;;9.00;99.90;;;;;;5032360;28;20446;-85
2020/12/13 09:40:15;;;;;;;27.10;19.37;;;9.00;99.90;;;;;;5045582;28;20845;-85
2020/12/13 09:42:42;;;;;;;32.60;19.13;;;8.90;99.90;;;;;;5035652;28;20860;-89
2020/12/13 09:45:08;;;;;;;27.80;20.13;;;9.00;99.90;;;;;;5026700;28;20888;-85
2020/12/13 09:47:34;;;;;;;21.90;16.97;;;9.00;99.90;;;;;;5016424;28;20798;-85
2020/12/13 09:50:01;;;;;;;29.43;19.00;;;9.00;99.90;;;;;;5015887;28;20449;-84
2020/12/13 09:52:27;;;;;;;27.70;17.90;;;9.00;99.90;;;;;;5016063;28;20528;-84
2020/12/13 09:54:54;;;;;;;26.50;18.50;;;9.00;99.90;;;;;;5025800;28;20461;-85
2020/12/13 09:57:21;;;;;;;27.63;18.63;;;9.00;99.90;;;;;;5036011;28;20448;-84
2020/12/13 09:59:48;;;;;;;25.63;18.60;;;8.90;99.90;;;;;;5035161;28;20449;-85
2020/12/13 10:02:15;;;;;;;30.93;19.60;;;8.90;99.90;;;;;;5032159;28;20811;-84
2020/12/13 10:04:41;;;;;;;31.43;20.50;;;8.80;99.90;;;;;;5015470;28;20932;-84
2020/12/13 10:07:27;;;;;;;28.17;20.30;;;8.80;99.90;;;;;;5016397;28;20524;-84
2020/12/13 10:09:53;;;;;;;36.80;20.50;;;8.90;99.90;;;;;;5034541;28;20467;-84
2020/12/13 10:12:20;;;;;;;32.00;18.47;;;8.80;99.90;;;;;;5030623;28;20481;-85
2020/12/13 10:14:47;;;;;;;30.93;20.77;;;8.80;99.90;;;;;;5028782;28;20457;-87
2020/12/13 10:17:14;;;;;;;34.87;22.07;;;8.80;99.90;;;;;;5035120;28;20452;-84
2020/12/13 10:19:40;;;;;;;34.60;20.30;;;8.90;99.90;;;;;;5034873;28;20477;-84
2020/12/13 10:22:06;;;;;;;25.50;18.43;;;9.10;99.90;;;;;;5034285;28;20838;-85
2020/12/13 10:24:33;;;;;;;29.50;18.30;;;9.10;99.90;;;;;;5018077;28;20493;-85
2020/12/13 10:26:59;;;;;;;25.07;18.30;;;9.30;99.90;;;;;;5022536;28;20450;-85
2020/12/13 10:29:26;;;;;;;21.80;16.60;;;9.30;99.90;;;;;;5015269;28;20446;-85
2020/12/13 10:31:53;;;;;;;20.67;15.67;;;9.40;99.90;;;;;;5035433;28;20467;-84
2020/12/13 10:34:19;;;;;;;22.23;16.63;;;9.20;99.90;;;;;;5035811;28;20449;-84
2020/12/13 10:36:48;;;;;;;22.40;14.83;;;9.20;99.90;;;;;;5035164;28;20453;-89
2020/12/13 10:39:19;;;;;;;16.97;11.90;;;9.20;99.90;;;;;;5035093;28;20452;-85
2020/12/13 10:41:46;;;;;;;28.87;14.43;;;9.20;99.90;;;;;;5034919;28;20437;-89
2020/12/13 10:44:14;;;;;;;20.30;13.00;;;9.10;99.90;;;;;;5034928;28;20519;-84
2020/12/13 10:46:41;;;;;;;19.07;12.87;;;9.10;99.90;;;;;;5035801;28;20438;-85
2020/12/13 10:49:08;;;;;;;21.77;13.60;;;9.20;99.90;;;;;;5035677;28;20445;-84
2020/12/13 10:51:34;;;;;;;23.00;13.53;;;9.10;99.90;;;;;;5046608;28;20544;-84
2020/12/13 10:54:01;;;;;;;21.13;11.57;;;9.00;99.90;;;;;;5037302;28;20492;-84
2020/12/13 10:56:27;;;;;;;20.80;11.70;;;9.10;99.90;;;;;;5036250;28;20453;-84
2020/12/13 10:58:53;;;;;;;15.80;11.47;;;9.10;99.90;;;;;;5035696;28;20528;-85
2020/12/13 11:01:20;;;;;;;19.03;11.53;;;9.20;99.90;;;;;;5036624;28;20473;-86
2020/12/13 11:03:46;;;;;;;20.87;12.10;;;8.90;99.90;;;;;;5035553;28;20449;-89
2020/12/13 11:06:14;;;;;;;17.40;10.87;;;9.10;99.90;;;;;;5034895;28;20460;-86
2020/12/13 11:08:40;;;;;;;14.10;10.47;;;9.30;99.90;;;;;;5034704;28;20449;-84
2020/12/13 11:11:07;;;;;;;17.10;10.60;;;9.30;99.90;;;;;;5034788;28;20883;-85
2020/12/13 11:13:33;;;;;;;22.23;10.80;;;9.30;99.90;;;;;;5034814;28;20498;-85
2020/12/13 11:15:59;;;;;;;18.30;11.20;;;9.30;99.90;;;;;;5034623;28;20463;-85
2020/12/13 11:18:30;;;;;;;18.67;10.20;;;9.30;99.90;;;;;;5034476;28;20449;-85
2020/12/13 11:20:57;;;;;;;16.13;10.77;;;9.40;99.90;;;;;;5034872;28;20886;-85
2020/12/13 11:23:24;;;;;;;17.23;11.10;;;9.50;99.90;;;;;;5035072;28;20531;-84
2020/12/13 11:25:50;;;;;;;17.50;10.10;;;9.60;99.90;;;;;;5026227;28;20445;-90
2020/12/13 11:28:17;;;;;;;13.80;8.83;;;9.60;99.90;;;;;;5020709;28;20539;-84
2020/12/13 11:30:43;;;;;;;20.93;10.33;;;9.60;99.90;;;;;;5035395;28;20901;-84
2020/12/13 11:33:09;;;;;;;11.20;7.70;;;9.30;99.90;;;;;;5052715;28;21043;-84
2020/12/13 11:35:36;;;;;;;12.13;7.63;;;9.50;99.90;;;;;;5043394;28;20456;-82
2020/12/13 11:38:02;;;;;;;12.67;8.30;;;9.60;99.90;;;;;;5032645;28;20906;-83
2020/12/13 11:40:29;;;;;;;14.83;7.50;;;9.70;99.90;;;;;;5032511;28;20449;-88
2020/12/13 11:42:56;;;;;;;15.50;7.87;;;9.50;99.90;;;;;;5029005;28;20483;-84
2020/12/13 11:45:22;;;;;;;17.70;8.50;;;9.60;99.90;;;;;;5035085;28;20469;-85
2020/12/13 11:47:48;;;;;;;10.40;6.77;;;9.70;99.90;;;;;;5035384;28;20449;-85
2020/12/13 11:50:15;;;;;;;11.37;7.33;;;9.40;99.90;;;;;;5037352;28;20469;-84
2020/12/13 11:52:42;;;;;;;9.20;6.70;;;9.40;99.90;;;;;;5036745;28;20488;-85
2020/12/13 11:55:08;;;;;;;9.80;6.70;;;9.30;99.90;;;;;;5032719;28;20507;-86
2020/12/13 11:57:36;;;;;;;9.93;7.00;;;9.30;99.90;;;;;;5024517;28;20446;-86
2020/12/13 12:00:03;;;;;;;14.70;7.23;;;9.50;99.90;;;;;;5014247;28;20905;-85
2020/12/13 12:02:29;;;;;;;10.37;5.80;;;9.60;99.90;;;;;;5016850;28;20450;-85
2020/12/13 12:04:59;;;;;;;10.10;6.33;;;9.70;99.90;;;;;;5030221;28;20488;-85
2020/12/13 12:07:28;;;;;;;14.70;6.40;;;9.80;99.90;;;;;;5035135;28;20507;-85
2020/12/13 12:10:00;;;;;;;13.10;6.07;;;9.80;99.90;;;;;;5013958;28;20489;-83
2020/12/13 12:12:28;;;;;;;10.07;5.93;;;9.80;99.90;;;;;;5028612;28;20477;-84
2020/12/13 12:14:55;;;;;;;9.87;6.43;;;9.80;99.90;;;;;;5036053;28;20445;-86
2020/12/13 12:17:25;;;;;;;8.63;6.57;;;10.00;99.90;;;;;;5034586;28;20532;-85
2020/12/13 12:19:54;;;;;;;10.77;7.80;;;10.00;99.90;;;;;;5034343;28;20477;-85
2020/12/13 12:22:33;;;;;;;10.03;6.50;;;10.10;99.90;;;;;;5033979;28;20449;-84
2020/12/13 12:25:00;;;;;;;8.20;6.20;;;10.20;99.90;;;;;;5032762;28;20540;-85
2020/12/13 12:27:32;;;;;;;8.40;5.63;;;10.40;99.90;;;;;;5024774;28;20484;-84
2020/12/13 12:30:02;;;;;;;8.00;6.50;;;10.40;99.90;;;;;;5033756;28;20453;-85
2020/12/13 12:32:29;;;;;;;10.33;6.33;;;10.50;99.90;;;;;;5027832;28;20473;-86
2020/12/13 12:35:15;;;;;;;11.60;6.53;;;10.40;99.90;;;;;;5025081;28;20548;-85
2020/12/13 12:38:09;;;;;;;10.30;6.10;;;10.40;99.90;;;;;;5028742;28;20476;-85
2020/12/13 12:47:04;;;;;;;12.37;5.50;;;10.30;99.90;;;;;;5033372;28;20534;-85
2020/12/13 12:49:37;;;;;;;10.27;5.83;;;10.60;99.90;;;;;;5037963;28;20475;-84
2020/12/13 12:52:08;;;;;;;7.00;4.10;;;10.60;99.90;;;;;;5038474;28;20476;-84
2020/12/13 12:54:38;;;;;;;9.60;5.37;;;10.80;99.90;;;;;;5037730;28;20728;-87
2020/12/13 12:57:05;;;;;;;10.07;5.43;;;10.60;99.90;;;;;;5037629;28;20499;-85
2020/12/13 12:59:36;;;;;;;8.60;4.70;;;10.40;99.90;;;;;;5038184;28;20515;-85
2020/12/13 13:02:05;;;;;;;7.40;4.43;;;10.40;99.90;;;;;;5037538;28;20822;-85